TimeEDT,TemperatureF,Dew PointF,Humidity,Sea Level PressureIn,VisibilityMPH,Wind Direction,Wind SpeedMPH,Gust SpeedMPH,PrecipitationIn,Events,Conditions,WindDirDegrees,DateUTC
12:53 AM,39.9,30.0,68,29.85,10.0,NNW,10.4,18.4,N/A,,Clear,340,2013-03-21 04:53:00
1:53 AM,37.4,28.4,70,29.83,10.0,NNW,10.4,19.6,N/A,,Clear,340,2013-03-21 05:53:00
2:53 AM,36.0,26.1,67,29.82,10.0,North,9.2,-,N/A,,Clear,350,2013-03-21 06:53:00
3:53 AM,35.1,24.1,64,29.81,10.0,East,3.5,-,N/A,,Clear,80,2013-03-21 07:53:00
4:53 AM,33.1,24.1,70,29.80,10.0,Calm,Calm,-,N/A,,Clear,0,2013-03-21 08:53:00
5:53 AM,32.0,21.9,66,29.82,10.0,NE,5.8,-,N/A,,Clear,40,2013-03-21 09:53:00
6:53 AM,32.0,18.0,56,29.83,9.0,Calm,Calm,-,N/A,,Clear,0,2013-03-21 10:53:00
7:53 AM,30.9,12.9,47,29.84,10.0,North,6.9,-,N/A,,Clear,10,2013-03-21 11:53:00
8:53 AM,33.1,12.0,42,29.86,10.0,North,9.2,-,N/A,,Clear,10,2013-03-21 12:53:00
9:53 AM,36.0,12.0,37,29.86,10.0,Variable,4.6,-,N/A,,Clear,0,2013-03-21 13:53:00
10:53 AM,37.9,12.0,35,29.87,10.0,Calm,Calm,-,N/A,,Clear,0,2013-03-21 14:53:00
11:53 AM,41.0,14.0,33,29.86,10.0,Calm,Calm,-,N/A,,Clear,0,2013-03-21 15:53:00
12:53 PM,43.0,12.9,30,29.86,10.0,WNW,4.6,-,N/A,,Clear,290,2013-03-21 16:53:00
1:53 PM,44.1,12.0,27,29.84,10.0,Calm,Calm,-,N/A,,Clear,0,2013-03-21 17:53:00
2:53 PM,46.9,10.0,22,29.82,10.0,Variable,3.5,-,N/A,,Clear,0,2013-03-21 18:53:00
3:53 PM,50.0,12.0,22,29.81,10.0,NNE,9.2,-,N/A,,Clear,20,2013-03-21 19:53:00
4:53 PM,48.9,15.1,26,29.82,10.0,NNE,12.7,-,N/A,,Clear,30,2013-03-21 20:53:00
5:53 PM,46.9,14.0,27,29.83,10.0,NNE,10.4,-,N/A,,Clear,30,2013-03-21 21:53:00
6:53 PM,45.0,12.9,27,29.85,10.0,NE,10.4,-,N/A,,Clear,40,2013-03-21 22:53:00
7:53 PM,39.9,12.9,33,29.88,10.0,NE,9.2,-,N/A,,Clear,40,2013-03-21 23:53:00
8:53 PM,37.9,12.0,35,29.90,10.0,NNE,4.6,-,N/A,,Clear,20,2013-03-22 00:53:00
9:53 PM,36.0,12.0,37,29.92,10.0,NE,4.6,-,N/A,,Clear,40,2013-03-22 01:53:00
10:53 PM,35.1,12.0,39,29.94,10.0,Calm,Calm,-,N/A,,Clear,0,2013-03-22 02:53:00
11:53 PM,33.1,12.0,42,29.95,10.0,East,3.5,-,N/A,,Clear,90,2013-03-22 03:53:00